This is the latest recevied weather packets stored in our database for station/object KB3VSP. If no packets are shown the sender has not sent any weather packets the latest 1 day(s).
| Time | Temp. | Humidity | Pressure | Rain* | Wind** | Luminosity | Snow |
|---|---|---|---|---|---|---|---|
| 1777974311 | 16.67° C | 72% | 1007.7 hPa | 0 mm | 0.89 m/s, 171° | 0 W/m² | - |
| 1777974007 | 16.67° C | 73% | 1007.6 hPa | 0 mm | 0 m/s | 0 W/m² | - |
| 1777973703 | 16.67° C | 72% | 1007.7 hPa | 0 mm | 0.45 m/s, 305° | 0 W/m² | - |
| 1777973401 | 16.67° C | 73% | 1007.3 hPa | 0 mm | 0.45 m/s, 59° | 0 W/m² | - |
| 1777973098 | 16.67° C | 73% | 1007.2 hPa | 0 mm | 0.45 m/s, 50° | 0 W/m² | - |
| 1777972796 | 16.67° C | 73% | 1007.6 hPa | 0 mm | 0 m/s | 0 W/m² | - |
| 1777972493 | 16.67° C | 73% | 1007.3 hPa | 0 mm | 0.89 m/s, 66° | 0 W/m² | - |
| 1777972191 | 16.67° C | 74% | 1007.4 hPa | 0 mm | 0.45 m/s, 54° | 0 W/m² | - |
| 1777971889 | 16.67° C | 74% | 1007.4 hPa | 0 mm | 0.89 m/s, 134° | 0 W/m² | - |
| 1777971586 | 16.67° C | 74% | 1007.3 hPa | 0 mm | 0.45 m/s, 60° | 0 W/m² | - |
| 1777971284 | 16.67° C | 75% | 1007.3 hPa | 0 mm | 1.34 m/s, 130° | 0 W/m² | - |
| 1777970982 | 16.67° C | 75% | 1007.3 hPa | 0 mm | 0.45 m/s, 46° | 0 W/m² | - |
| 1777970680 | 16.11° C | 76% | 1007.4 hPa | 0 mm | 1.34 m/s, 152° | 0 W/m² | - |
| 1777970378 | 16.11° C | 76% | 1007.6 hPa | 0 mm | 0.45 m/s, 66° | 0 W/m² | - |
| 1777970075 | 16.11° C | 76% | 1007.4 hPa | 0 mm | 0.89 m/s, 103° | 0 W/m² | - |
| 1777969771 | 16.11° C | 76% | 1007.6 hPa | 0 mm | 0.89 m/s, 102° | 0 W/m² | - |
| 1777969466 | 16.11° C | 76% | 1007.7 hPa | 0 mm | 0.45 m/s, 350° | 0 W/m² | - |
| 1777969164 | 16.11° C | 76% | 1007.2 hPa | 0 mm | 0.45 m/s, 87° | 0 W/m² | - |
| 1777968861 | 16.67° C | 75% | 1007.4 hPa | 0 mm | 0 m/s | 0 W/m² | - |
| 1777968557 | 16.67° C | 75% | 1007.3 hPa | 0 mm | 1.34 m/s, 71° | 0 W/m² | - |
| 1777968254 | 16.67° C | 75% | 1007.2 hPa | 0 mm | 0.89 m/s, 104° | 0 W/m² | - |
| 1777967949 | 16.67° C | 74% | 1007.3 hPa | 0 mm | 0 m/s | 0 W/m² | - |
| 1777967646 | 16.67° C | 73% | 1007.2 hPa | 0 mm | 0 m/s | 0 W/m² | - |
| 1777967344 | 16.67° C | 73% | 1007.1 hPa | 0 mm | 1.34 m/s, 93° | 0 W/m² | - |
| 1777967040 | 16.67° C | 72% | 1006.6 hPa | 0 mm | 0.45 m/s, 52° | 0 W/m² | - |
* Rain latest hour (hover to see other rain measurements)
** Current wind speed in m/s (hover to see current wind gust speed)